Time;durP1;ratioP1;P1;durP2;ratioP2;P2;SDS_P1;SDS_P2;PMS_P1;PMS_P2;Temp;Humidity;BMP_temperature;BMP_pressure;BME280_temperature;BME280_humidity;BME280_pressure;Samples;Min_cycle;Max_cycle;Signal;HPM_P1;HPM_P2
2021/09/11 11:47:56;;;;;;;4.93;2.40;;;23.30;99.90;;;;;;6276250;22;20190;-78
2021/09/11 11:50:26;;;;;;;3.40;2.67;;;23.10;99.90;;;;;;6278343;22;20288;-81
2021/09/11 11:52:56;;;;;;;3.17;2.20;;;23.30;99.90;;;;;;6264927;22;20196;-81
2021/09/11 11:55:24;;;;;;;2.33;2.10;;;23.50;99.90;;;;;;6247542;23;20707;-81
2021/09/11 11:57:51;;;;;;;2.70;2.08;;;23.70;99.90;;;;;;6247546;23;20198;-78
2021/09/11 12:00:18;;;;;;;3.15;2.53;;;24.00;99.90;;;;;;6248127;23;20175;-81
2021/09/11 12:02:47;;;;;;;5.30;2.30;;;24.10;99.90;;;;;;6247645;22;20227;-83
2021/09/11 12:05:18;;;;;;;4.15;2.30;;;24.10;99.90;;;;;;6247276;23;20634;-78
2021/09/11 12:07:56;;;;;;;2.97;2.45;;;23.90;99.90;;;;;;6251260;23;20625;-77
2021/09/11 12:10:24;;;;;;;3.63;2.60;;;23.80;99.90;;;;;;6253638;23;20594;-80
2021/09/11 12:12:53;;;;;;;6.07;2.25;;;23.80;99.90;;;;;;6245216;22;20196;-77
2021/09/11 12:15:25;;;;;;;3.72;2.45;;;23.40;99.90;;;;;;6246160;23;20259;-77
2021/09/11 12:18:00;;;;;;;3.63;2.20;;;23.40;99.90;;;;;;6246633;23;20186;-81
2021/09/11 12:20:31;;;;;;;2.92;2.28;;;23.20;99.90;;;;;;6246940;23;20175;-75
2021/09/11 12:28:34;;;;;;;3.05;2.20;;;23.20;99.90;;;;;;6269037;22;20255;-79
2021/09/11 12:31:01;;;;;;;2.65;1.98;;;23.20;99.90;;;;;;6276339;22;20202;-73
2021/09/11 12:33:28;;;;;;;2.85;2.40;;;23.00;99.90;;;;;;6277015;22;20179;-73
2021/09/11 12:35:56;;;;;;;3.55;2.60;;;22.70;99.90;;;;;;6276685;22;20506;-72
2021/09/11 12:38:23;;;;;;;4.47;2.60;;;22.40;99.90;;;;;;6277689;22;20179;-72
2021/09/11 12:40:50;;;;;;;3.08;2.05;;;22.10;99.90;;;;;;6277048;22;20698;-73
2021/09/11 12:43:17;;;;;;;3.95;2.22;;;21.80;99.90;;;;;;6277248;22;20560;-73
2021/09/11 12:45:43;;;;;;;2.85;1.90;;;21.70;99.90;;;;;;6277504;22;20278;-72
2021/09/11 12:48:10;;;;;;;5.80;2.00;;;21.50;99.90;;;;;;6277000;22;20182;-72
2021/09/11 12:50:37;;;;;;;3.95;2.20;;;21.40;99.90;;;;;;6277499;22;20206;-74
2021/09/11 12:53:05;;;;;;;3.78;2.38;;;21.50;99.90;;;;;;6277612;22;20181;-73
2021/09/11 12:55:32;;;;;;;3.20;2.30;;;21.60;99.90;;;;;;6277491;22;20195;-74
2021/09/11 12:57:58;;;;;;;4.68;2.08;;;21.70;99.90;;;;;;6277328;22;20179;-73
2021/09/11 13:00:25;;;;;;;2.42;1.80;;;21.80;99.90;;;;;;6277073;22;20174;-78
2021/09/11 13:02:52;;;;;;;4.25;1.92;;;22.00;99.90;;;;;;6276736;22;20186;-72
2021/09/11 13:05:19;;;;;;;3.97;1.90;;;22.00;99.90;;;;;;6277356;22;20581;-76
2021/09/11 13:07:46;;;;;;;3.47;1.77;;;22.20;99.90;;;;;;6277427;22;20181;-73
2021/09/11 13:10:14;;;;;;;5.55;1.67;;;22.40;99.90;;;;;;6277397;22;20209;-78
2021/09/11 13:12:58;;;;;;;2.83;1.75;;;22.60;99.90;;;;;;6276957;22;20185;-72
2021/09/11 13:15:25;;;;;;;2.78;1.50;;;22.70;99.90;;;;;;6278737;22;20199;-73
2021/09/11 13:17:52;;;;;;;3.08;1.55;;;22.80;99.90;;;;;;6285302;22;20179;-76
2021/09/11 13:20:19;;;;;;;3.42;1.80;;;22.80;99.90;;;;;;6277837;22;20174;-84
2021/09/11 13:22:45;;;;;;;3.30;1.38;;;22.60;99.90;;;;;;6277824;22;20238;-80
2021/09/11 13:25:13;;;;;;;4.55;1.40;;;22.60;99.90;;;;;;6276943;22;20665;-80
2021/09/11 13:27:40;;;;;;;1.30;1.10;;;22.70;99.90;;;;;;6277099;22;20181;-72
2021/09/11 13:30:08;;;;;;;2.38;1.40;;;22.90;99.90;;;;;;6277326;22;20199;-72
2021/09/11 13:32:34;;;;;;;1.52;1.15;;;22.70;99.90;;;;;;6277069;22;20175;-75
2021/09/11 13:35:01;;;;;;;2.22;1.20;;;22.70;99.90;;;;;;6277183;22;20195;-77
2021/09/11 13:37:28;;;;;;;1.48;1.08;;;22.80;99.90;;;;;;6276421;22;20261;-79
2021/09/11 13:39:55;;;;;;;2.92;1.00;;;22.90;99.90;;;;;;6277024;22;20189;-82
2021/09/11 13:42:23;;;;;;;2.03;1.00;;;22.70;99.90;;;;;;6276731;22;20178;-81
2021/09/11 13:44:52;;;;;;;2.05;1.00;;;22.80;99.90;;;;;;6276567;22;20205;-78
2021/09/11 13:47:19;;;;;;;1.65;1.08;;;22.90;99.90;;;;;;6276422;22;20278;-72
2021/09/11 13:49:46;;;;;;;4.35;1.00;;;22.90;99.90;;;;;;6276029;22;20514;-76
2021/09/11 13:52:13;;;;;;;1.17;0.85;;;22.90;99.90;;;;;;6275881;22;20203;-73
2021/09/11 13:54:42;;;;;;;1.40;1.00;;;23.20;99.90;;;;;;6277267;22;20179;-76
2021/09/11 13:57:10;;;;;;;1.15;0.88;;;23.40;99.90;;;;;;6276774;22;20175;-78
2021/09/11 13:59:39;;;;;;;2.85;1.23;;;23.30;99.90;;;;;;6276623;22;20217;-79
2021/09/11 14:02:06;;;;;;;2.15;0.90;;;23.30;99.90;;;;;;6276108;22;20396;-81
2021/09/11 14:04:33;;;;;;;2.72;0.98;;;23.40;99.90;;;;;;6275822;22;20178;-81
2021/09/11 14:07:00;;;;;;;1.42;1.00;;;23.50;99.90;;;;;;6276490;22;20262;-82
2021/09/11 14:09:26;;;;;;;1.20;0.80;;;23.60;99.90;;;;;;6276869;22;20185;-80
2021/09/11 14:11:53;;;;;;;3.38;1.20;;;23.60;99.90;;;;;;6276514;22;20225;-78
2021/09/11 14:14:20;;;;;;;1.80;0.80;;;23.70;99.90;;;;;;6276512;22;20549;-78
2021/09/11 14:16:50;;;;;;;1.55;1.02;;;23.70;99.90;;;;;;6276235;22;20687;-80
2021/09/11 14:19:17;;;;;;;2.42;0.82;;;23.70;99.90;;;;;;6276901;22;20178;-81
2021/09/11 14:21:44;;;;;;;1.77;0.80;;;23.50;99.90;;;;;;6276620;22;20262;-80
2021/09/11 14:24:10;;;;;;;2.05;0.70;;;23.50;99.90;;;;;;6276700;22;20181;-80
2021/09/11 14:26:37;;;;;;;1.83;0.75;;;23.50;99.90;;;;;;6276043;22;20195;-82
2021/09/11 14:29:04;;;;;;;1.90;0.70;;;23.50;99.90;;;;;;6274989;22;20182;-81
2021/09/11 14:31:31;;;;;;;4.68;1.00;;;23.50;99.90;;;;;;6274553;22;20245;-83
2021/09/11 14:34:01;;;;;;;2.15;1.08;;;23.70;99.90;;;;;;6274290;22;20181;-81
2021/09/11 14:36:29;;;;;;;1.23;0.65;;;23.70;99.90;;;;;;6274524;22;20673;-81
2021/09/11 14:38:56;;;;;;;1.42;0.70;;;23.70;99.90;;;;;;6274804;22;20182;-80
2021/09/11 14:41:22;;;;;;;1.40;0.65;;;23.80;99.90;;;;;;6274423;22;20175;-80
2021/09/11 14:43:49;;;;;;;1.75;0.77;;;23.80;99.90;;;;;;6275418;22;20174;-81
2021/09/11 14:46:16;;;;;;;1.77;0.57;;;23.90;99.90;;;;;;6276566;22;20195;-81
2021/09/11 14:48:43;;;;;;;2.00;0.55;;;23.90;99.90;;;;;;6277385;22;20501;-84
2021/09/11 14:51:11;;;;;;;2.72;1.80;;;23.60;99.90;;;;;;6278090;22;20206;-90
2021/09/11 14:53:38;;;;;;;1.33;0.80;;;23.50;99.90;;;;;;6277944;22;20181;-83
2021/09/11 14:56:05;;;;;;;1.70;0.73;;;23.40;99.90;;;;;;6277935;22;20195;-89
2021/09/11 14:58:32;;;;;;;2.60;0.90;;;23.30;99.90;;;;;;6277423;22;20262;-89
2021/09/11 15:00:58;;;;;;;1.83;0.80;;;23.30;99.90;;;;;;6277239;22;20261;-89
2021/09/11 15:03:25;;;;;;;1.50;0.85;;;23.20;99.90;;;;;;6277890;22;20262;-86
2021/09/11 15:05:52;;;;;;;1.60;0.65;;;23.00;99.90;;;;;;6277653;22;20195;-87
2021/09/11 15:08:20;;;;;;;1.52;0.60;;;22.80;99.90;;;;;;6277933;22;20185;-88
2021/09/11 15:10:47;;;;;;;1.17;0.80;;;22.80;99.90;;;;;;6277413;22;20202;-86
2021/09/11 15:13:14;;;;;;;1.75;0.88;;;22.70;99.90;;;;;;6278917;22;20174;-87
2021/09/11 15:15:41;;;;;;;0.93;0.77;;;22.60;99.90;;;;;;6277422;22;20201;-89
2021/09/11 15:18:07;;;;;;;1.33;0.70;;;22.50;99.90;;;;;;6277361;22;20237;-88
2021/09/11 15:20:34;;;;;;;2.67;0.80;;;22.60;99.90;;;;;;6277057;22;20185;-89
2021/09/11 15:23:01;;;;;;;1.88;0.90;;;22.70;99.90;;;;;;6277376;22;20175;-90
2021/09/11 15:25:29;;;;;;;1.75;0.85;;;22.80;99.90;;;;;;6276834;22;20199;-85
2021/09/11 15:27:56;;;;;;;2.33;0.80;;;22.90;99.90;;;;;;6277500;22;20181;-88
2021/09/11 15:30:23;;;;;;;1.13;0.50;;;22.80;99.90;;;;;;6277484;22;20175;-87
2021/09/11 15:32:51;;;;;;;1.23;0.60;;;22.70;99.90;;;;;;6282547;22;20179;-88
2021/09/11 15:35:18;;;;;;;1.70;0.50;;;22.50;99.90;;;;;;6297459;22;20198;-89
2021/09/11 15:37:45;;;;;;;1.48;0.60;;;22.50;99.90;;;;;;6279056;22;20197;-80
2021/09/11 15:40:13;;;;;;;0.77;0.60;;;22.50;99.90;;;;;;6277059;22;20181;-88
2021/09/11 15:42:41;;;;;;;1.40;0.77;;;22.40;99.90;;;;;;6277195;22;20261;-79
2021/09/11 15:45:11;;;;;;;1.77;0.95;;;22.50;99.90;;;;;;6276198;22;20195;-83
2021/09/11 15:47:38;;;;;;;4.68;1.20;;;22.50;99.90;;;;;;6276990;22;20182;-88
2021/09/11 15:50:07;;;;;;;3.03;0.80;;;22.40;99.90;;;;;;6276122;22;20479;-90
2021/09/11 15:52:37;;;;;;;1.80;1.10;;;22.40;99.90;;;;;;6277598;22;20228;-86
2021/09/11 15:55:05;;;;;;;1.40;0.85;;;22.40;99.90;;;;;;6276998;22;20549;-87
2021/09/11 15:57:32;;;;;;;3.08;0.95;;;22.40;99.90;;;;;;6277817;22;20181;-89
2021/09/11 16:00:00;;;;;;;1.50;0.90;;;22.40;99.90;;;;;;6277069;22;20181;-85
2021/09/11 16:02:27;;;;;;;1.88;0.80;;;22.50;99.90;;;;;;6277140;22;20175;-89
2021/09/11 16:04:54;;;;;;;1.40;0.80;;;22.40;99.90;;;;;;6276773;22;20195;-87
2021/09/11 16:07:22;;;;;;;0.75;0.50;;;22.40;99.90;;;;;;6276883;22;20185;-83
2021/09/11 16:09:49;;;;;;;1.40;0.60;;;22.40;99.90;;;;;;6276750;22;20258;-85
2021/09/11 16:12:16;;;;;;;1.67;0.80;;;22.40;99.90;;;;;;6276803;22;20257;-81
2021/09/11 16:14:43;;;;;;;3.10;0.70;;;22.50;99.90;;;;;;6277166;22;20215;-87
2021/09/11 16:17:12;;;;;;;1.30;0.90;;;22.50;99.90;;;;;;6276379;22;20197;-78
2021/09/11 16:19:38;;;;;;;1.48;0.70;;;22.50;99.90;;;;;;6276684;22;20185;-87
2021/09/11 16:22:05;;;;;;;2.17;0.90;;;22.60;99.90;;;;;;6280019;22;20186;-88
2021/09/11 16:24:32;;;;;;;2.08;1.05;;;22.50;99.90;;;;;;6279286;22;20174;-88
2021/09/11 16:26:59;;;;;;;1.55;1.15;;;22.40;99.90;;;;;;6278496;22;20185;-85
2021/09/11 16:29:26;;;;;;;2.25;0.77;;;22.40;99.90;;;;;;6277850;22;20633;-82
2021/09/11 16:31:53;;;;;;;1.38;0.88;;;22.50;99.90;;;;;;6277844;22;20209;-76
2021/09/11 16:34:21;;;;;;;2.83;1.00;;;22.60;99.90;;;;;;6277950;22;20178;-88
2021/09/11 16:36:48;;;;;;;1.33;0.85;;;22.60;99.90;;;;;;6277857;22;20198;-72
2021/09/11 16:39:15;;;;;;;1.65;0.93;;;22.60;99.90;;;;;;6278397;22;20178;-88
2021/09/11 16:41:42;;;;;;;2.45;0.93;;;22.60;99.90;;;;;;6278452;22;20175;-87
2021/09/11 16:44:09;;;;;;;2.15;1.10;;;22.50;99.90;;;;;;6277240;22;20322;-72
2021/09/11 16:46:37;;;;;;;3.08;0.90;;;22.50;99.90;;;;;;6277477;22;20566;-72
2021/09/11 16:49:04;;;;;;;2.25;1.00;;;22.60;99.90;;;;;;6277927;22;20179;-87
2021/09/11 16:51:32;;;;;;;3.35;1.17;;;22.60;99.90;;;;;;6278286;22;20202;-85
2021/09/11 16:53:59;;;;;;;1.58;1.20;;;22.50;99.90;;;;;;6278700;22;20175;-81
2021/09/11 16:56:26;;;;;;;2.47;0.85;;;22.50;99.90;;;;;;6278373;22;20681;-88
2021/09/11 16:58:52;;;;;;;2.60;1.05;;;22.50;99.90;;;;;;6278342;22;20182;-87
2021/09/11 17:01:21;;;;;;;3.78;0.98;;;22.50;99.90;;;;;;6278371;22;20197;-73
2021/09/11 17:03:48;;;;;;;1.35;0.85;;;22.40;99.90;;;;;;6278461;22;20195;-78
2021/09/11 17:06:15;;;;;;;1.10;0.90;;;22.30;99.90;;;;;;6278403;22;20195;-89
2021/09/11 17:08:43;;;;;;;1.92;0.73;;;22.20;99.90;;;;;;6278448;22;20641;-89
2021/09/11 17:11:11;;;;;;;1.50;0.90;;;22.10;99.90;;;;;;6278130;22;20181;-82
2021/09/11 17:13:37;;;;;;;2.20;0.70;;;22.00;99.90;;;;;;6278689;22;20182;-87
2021/09/11 17:16:05;;;;;;;2.25;0.80;;;22.10;99.90;;;;;;6278687;22;20195;-88
2021/09/11 17:18:32;;;;;;;3.10;1.00;;;22.10;99.90;;;;;;6278209;22;20207;-86
2021/09/11 17:20:59;;;;;;;1.75;0.77;;;22.10;99.90;;;;;;6278813;22;20175;-89
2021/09/11 17:23:26;;;;;;;2.45;0.98;;;22.10;99.90;;;;;;6278200;22;20174;-87
2021/09/11 17:25:55;;;;;;;1.95;0.80;;;22.00;99.90;;;;;;6278364;22;20202;-89
2021/09/11 17:28:21;;;;;;;2.47;0.95;;;22.00;99.90;;;;;;6278022;22;20182;-89
2021/09/11 17:30:48;;;;;;;2.85;0.70;;;21.90;99.90;;;;;;6278014;22;20185;-83
2021/09/11 17:33:15;;;;;;;1.45;0.80;;;21.90;99.90;;;;;;6277222;22;20207;-78
2021/09/11 17:35:42;;;;;;;3.25;0.98;;;21.90;99.90;;;;;;6276910;22;20199;-82
2021/09/11 17:38:10;;;;;;;4.32;1.00;;;21.80;99.90;;;;;;6277175;22;20175;-78
2021/09/11 17:40:38;;;;;;;2.13;0.80;;;21.70;99.90;;;;;;6277181;22;20653;-81
2021/09/11 17:43:06;;;;;;;3.17;1.00;;;21.70;99.90;;;;;;6277216;22;20175;-81
2021/09/11 17:45:33;;;;;;;3.22;1.00;;;21.60;99.90;;;;;;6276731;22;20198;-79
2021/09/11 17:48:00;;;;;;;4.78;1.20;;;21.60;99.90;;;;;;6277042;22;20201;-82
2021/09/11 17:50:27;;;;;;;2.35;0.60;;;21.60;99.90;;;;;;6279951;22;20175;-81
2021/09/11 17:52:54;;;;;;;2.65;1.00;;;21.50;99.90;;;;;;6278826;22;20238;-82
2021/09/11 17:55:21;;;;;;;1.15;0.88;;;21.50;99.90;;;;;;6277055;22;20195;-82
2021/09/11 17:57:48;;;;;;;2.15;1.10;;;21.30;99.90;;;;;;6277095;22;20202;-82
2021/09/11 18:00:17;;;;;;;2.15;0.95;;;21.30;99.90;;;;;;6277074;22;20206;-83
2021/09/11 18:02:43;;;;;;;2.10;1.05;;;21.20;99.90;;;;;;6276146;22;20181;-83
2021/09/11 18:05:12;;;;;;;1.77;0.93;;;21.10;99.90;;;;;;6276717;22;20665;-83
2021/09/11 18:07:40;;;;;;;1.77;1.00;;;21.10;99.90;;;;;;6277052;22;20174;-82
2021/09/11 18:10:08;;;;;;;2.47;1.35;;;21.10;99.90;;;;;;6277367;22;20210;-79
2021/09/11 18:12:35;;;;;;;3.40;1.70;;;21.20;99.90;;;;;;6277205;22;20206;-83
2021/09/11 18:15:02;;;;;;;1.65;1.00;;;21.20;99.90;;;;;;6277042;22;20581;-82
2021/09/11 18:17:30;;;;;;;4.20;1.10;;;21.10;99.90;;;;;;6276928;22;20261;-82
2021/09/11 18:19:58;;;;;;;1.83;1.00;;;21.00;99.90;;;;;;6276912;22;20257;-82
2021/09/11 18:22:28;;;;;;;3.70;1.20;;;20.90;99.90;;;;;;6276561;22;20186;-82
2021/09/11 18:24:55;;;;;;;2.30;1.05;;;20.80;99.90;;;;;;6278333;22;20199;-75
2021/09/11 18:27:22;;;;;;;1.85;1.10;;;20.80;99.90;;;;;;6307737;22;20519;-75
2021/09/11 18:29:48;;;;;;;2.85;1.13;;;20.70;99.90;;;;;;6307290;22;20474;-77
2021/09/11 18:32:15;;;;;;;2.30;1.10;;;20.60;99.90;;;;;;6307311;22;20201;-76
2021/09/11 18:34:43;;;;;;;4.28;1.05;;;20.50;99.90;;;;;;6307432;22;20178;-75
2021/09/11 18:37:10;;;;;;;4.32;1.52;;;20.30;99.90;;;;;;6306971;22;20620;-75
2021/09/11 18:39:37;;;;;;;2.90;0.98;;;20.20;99.90;;;;;;6307283;22;20181;-76
2021/09/11 18:42:04;;;;;;;3.58;1.05;;;20.00;99.90;;;;;;6307471;22;20184;-76
2021/09/11 18:44:31;;;;;;;2.13;1.33;;;19.90;99.90;;;;;;6306925;22;20184;-75
2021/09/11 18:46:58;;;;;;;1.80;1.00;;;19.80;99.90;;;;;;6307237;22;20260;-76
2021/09/11 18:49:25;;;;;;;3.00;1.10;;;19.70;99.90;;;;;;6307347;22;20205;-76
2021/09/11 18:51:53;;;;;;;1.98;1.10;;;19.70;99.90;;;;;;6307218;22;20208;-76
2021/09/11 18:54:21;;;;;;;2.75;1.00;;;19.50;99.90;;;;;;6307635;22;20174;-77
2021/09/11 18:56:48;;;;;;;1.95;1.13;;;19.30;99.90;;;;;;6307097;22;20657;-77
2021/09/11 18:59:15;;;;;;;3.05;1.23;;;19.10;99.90;;;;;;6306929;22;20185;-77
2021/09/11 19:01:41;;;;;;;3.53;1.27;;;19.20;99.90;;;;;;6306710;22;20651;-77
2021/09/11 19:04:08;;;;;;;2.47;1.23;;;19.00;99.90;;;;;;6307091;22;20650;-77
2021/09/11 19:06:35;;;;;;;5.32;1.50;;;19.00;99.90;;;;;;6307381;22;20205;-79
2021/09/11 19:09:03;;;;;;;4.03;1.25;;;19.00;99.90;;;;;;6307200;22;20223;-77
2021/09/11 19:11:33;;;;;;;4.20;1.73;;;19.00;99.90;;;;;;6306786;22;20184;-77
2021/09/11 19:14:00;;;;;;;3.10;1.40;;;18.90;99.90;;;;;;6306704;22;20182;-76
2021/09/11 19:16:26;;;;;;;4.05;2.08;;;18.80;99.90;;;;;;6306996;22;20194;-77
2021/09/11 19:18:53;;;;;;;5.07;1.90;;;18.70;99.90;;;;;;6307162;22;20180;-76
2021/09/11 19:21:20;;;;;;;3.45;1.77;;;18.60;99.90;;;;;;6307245;22;20178;-77
2021/09/11 19:23:47;;;;;;;2.42;1.80;;;18.60;99.90;;;;;;6307337;22;20185;-76
2021/09/11 19:26:16;;;;;;;2.45;1.90;;;18.50;99.90;;;;;;6306677;22;20201;-76
2021/09/11 19:28:45;;;;;;;3.47;1.80;;;18.40;99.90;;;;;;6307037;22;20174;-78
2021/09/11 19:31:12;;;;;;;3.90;1.75;;;18.50;99.90;;;;;;6307164;22;20261;-77
2021/09/11 19:33:38;;;;;;;2.33;1.48;;;18.50;99.90;;;;;;6307107;22;20260;-77
2021/09/11 19:36:06;;;;;;;3.63;2.45;;;18.30;99.90;;;;;;6307042;22;20194;-76
2021/09/11 19:38:33;;;;;;;3.10;1.92;;;18.20;99.90;;;;;;6306903;22;20232;-76
2021/09/11 19:41:00;;;;;;;3.85;1.92;;;18.20;99.90;;;;;;6307167;22;20178;-77
2021/09/11 19:43:30;;;;;;;3.73;1.93;;;18.20;99.90;;;;;;6306634;22;20180;-78
2021/09/11 19:45:57;;;;;;;5.20;1.83;;;18.10;99.90;;;;;;6306777;22;20194;-77
2021/09/11 19:48:24;;;;;;;3.43;1.83;;;18.10;99.90;;;;;;6308646;22;20185;-75
2021/09/11 19:50:51;;;;;;;4.53;1.80;;;18.20;99.90;;;;;;6307435;22;20178;-75
2021/09/11 19:53:17;;;;;;;3.37;1.70;;;18.10;99.90;;;;;;6307497;22;20527;-77
2021/09/11 19:55:44;;;;;;;5.20;2.33;;;18.10;99.90;;;;;;6310011;22;20194;-76
2021/09/11 19:58:11;;;;;;;4.80;1.97;;;18.00;99.90;;;;;;6310043;22;20252;-77
2021/09/11 20:00:39;;;;;;;3.60;1.70;;;17.90;99.90;;;;;;6310510;22;20174;-76
2021/09/11 20:03:06;;;;;;;2.13;1.47;;;17.90;99.90;;;;;;6310262;22;20184;-76
2021/09/11 20:05:33;;;;;;;3.60;1.80;;;17.80;99.90;;;;;;6308967;22;20698;-76
2021/09/11 20:07:59;;;;;;;2.13;1.60;;;17.80;99.90;;;;;;6308740;22;20624;-76
2021/09/11 20:10:26;;;;;;;4.67;2.30;;;17.70;99.90;;;;;;6308202;22;20175;-76
2021/09/11 20:12:53;;;;;;;2.67;1.80;;;17.70;99.90;;;;;;6308759;22;20212;-76
2021/09/11 20:15:20;;;;;;;3.97;1.93;;;17.70;99.90;;;;;;6308798;22;20194;-76
2021/09/11 20:17:48;;;;;;;4.27;1.80;;;17.60;99.90;;;;;;6308953;22;20180;-76
2021/09/11 20:20:15;;;;;;;6.70;2.00;;;17.60;99.90;;;;;;6308577;22;20178;-76
2021/09/11 20:22:42;;;;;;;4.50;2.13;;;17.60;99.90;;;;;;6309005;22;20628;-75
2021/09/11 20:25:09;;;;;;;3.23;2.37;;;17.70;99.90;;;;;;6308617;22;20198;-76
2021/09/11 20:27:37;;;;;;;3.17;1.87;;;17.70;99.90;;;;;;6308374;22;20654;-77
2021/09/11 20:30:04;;;;;;;4.27;2.00;;;17.70;99.90;;;;;;6308454;22;20185;-77
2021/09/11 20:32:31;;;;;;;4.83;2.30;;;17.50;99.90;;;;;;6308231;22;20198;-77
2021/09/11 20:34:59;;;;;;;4.10;2.83;;;17.50;99.90;;;;;;6308573;22;20576;-77
2021/09/11 20:37:26;;;;;;;4.43;2.70;;;17.50;99.90;;;;;;6308948;22;20173;-76
2021/09/11 20:39:53;;;;;;;6.50;2.30;;;17.50;99.90;;;;;;6309137;22;20174;-76
2021/09/11 20:42:19;;;;;;;4.90;2.57;;;17.50;99.90;;;;;;6308922;22;20174;-76
2021/09/11 20:44:46;;;;;;;4.93;2.27;;;17.60;99.90;;;;;;6308575;22;20257;-76
2021/09/11 20:47:13;;;;;;;5.13;2.53;;;17.50;99.90;;;;;;6308756;22;20174;-76
2021/09/11 20:49:40;;;;;;;5.57;2.50;;;17.50;99.90;;;;;;6308677;22;20178;-76
2021/09/11 20:52:08;;;;;;;5.53;2.30;;;17.40;99.90;;;;;;6308601;22;20174;-76
